Time;durP1;ratioP1;P1;durP2;ratioP2;P2;SDS_P1;SDS_P2;PMS_P1;PMS_P2;Temp;Humidity;BMP_temperature;BMP_pressure;BME280_temperature;BME280_humidity;BME280_pressure;Samples;Min_cycle;Max_cycle;Signal;HPM_P1;HPM_P2
2023/10/31 13:32:41;;;;;;;9.02;4.68;;;;;;;15.64;100.00;99280.88;5603056;31;73955;-57
2023/10/31 13:35:44;;;;;;;8.40;4.43;;;;;;;15.49;100.00;99322.84;5610436;31;33861;-57
2023/10/31 13:38:48;;;;;;;12.45;4.50;;;;;;;15.32;100.00;99346.59;5609535;31;33706;-57
2023/10/31 13:41:50;;;;;;;6.22;4.00;;;;;;;15.20;100.00;99366.28;5599603;31;33757;-57
2023/10/31 13:44:53;;;;;;;5.85;3.55;;;;;;;14.93;100.00;99364.97;5599940;31;33730;-57
2023/10/31 13:47:55;;;;;;;5.82;3.40;;;;;;;14.87;100.00;99414.91;5598852;31;34349;-57
2023/10/31 13:50:57;;;;;;;4.20;2.45;;;;;;;14.74;100.00;99414.06;5540401;31;34390;-57
2023/10/31 13:54:00;;;;;;;3.40;2.08;;;;;;;14.79;100.00;99400.34;5509603;32;33656;-57
2023/10/31 13:57:03;;;;;;;3.92;2.10;;;;;;;14.70;100.00;99369.97;5509735;32;34370;-57
2023/10/31 14:00:08;;;;;;;5.62;2.03;;;;;;;14.54;100.00;99335.53;5509741;32;33663;-57
2023/10/31 14:03:13;;;;;;;1.50;1.40;;;;;;;14.69;100.00;99338.72;5509554;32;35255;-57
2023/10/31 14:06:17;;;;;;;2.03;1.37;;;;;;;14.57;100.00;99297.13;5509507;32;34309;-57
2023/10/31 14:09:19;;;;;;;1.98;1.65;;;;;;;14.72;100.00;99260.59;5509443;32;33726;-57
2023/10/31 14:12:22;;;;;;;5.03;2.45;;;;;;;14.76;100.00;99202.16;5509345;32;33665;-57
2023/10/31 14:15:24;;;;;;;2.15;1.60;;;;;;;15.24;100.00;99126.91;5509349;32;33760;-57
2023/10/31 14:18:27;;;;;;;1.80;1.30;;;;;;;15.29;100.00;99134.75;5509627;32;34115;-57
2023/10/31 14:21:29;;;;;;;1.48;1.20;;;;;;;15.15;100.00;99164.03;5509436;32;34267;-57
2023/10/31 14:24:32;;;;;;;3.05;1.23;;;;;;;15.01;100.00;99159.78;5509497;32;34346;-57
2023/10/31 14:27:34;;;;;;;2.65;1.20;;;;;;;15.07;100.00;99151.47;5514822;32;33655;-57
2023/10/31 14:30:36;;;;;;;2.10;1.12;;;;;;;15.02;100.00;99163.25;5509064;32;33844;-57
2023/10/31 14:33:39;;;;;;;1.95;1.17;;;;;;;14.84;99.63;99224.00;5509241;32;34336;-57
2023/10/31 14:36:42;;;;;;;1.50;1.20;;;;;;;15.00;100.00;99206.78;5509284;32;33587;-57
2023/10/31 14:39:44;;;;;;;1.08;0.90;;;;;;;15.01;100.00;99199.47;5509190;32;33762;-57
2023/10/31 14:42:47;;;;;;;3.50;1.50;;;;;;;14.82;97.05;99220.84;5509054;32;34353;-57
2023/10/31 14:45:51;;;;;;;1.67;1.40;;;;;;;14.71;100.00;99217.81;5508923;32;33823;-57
2023/10/31 14:48:53;;;;;;;2.83;1.40;;;;;;;14.80;100.00;99202.28;5508969;32;33614;-57
2023/10/31 14:51:55;;;;;;;1.83;1.15;;;;;;;14.85;100.00;99199.38;5509080;32;33930;-57
2023/10/31 14:54:58;;;;;;;1.77;1.30;;;;;;;14.89;99.04;99234.56;5509172;31;33675;-57
2023/10/31 14:58:00;;;;;;;2.08;1.20;;;;;;;14.77;98.50;99241.53;5508866;32;33653;-57
2023/10/31 15:01:04;;;;;;;2.45;1.20;;;;;;;14.83;100.00;99271.75;5508915;32;34406;-58
2023/10/31 15:04:06;;;;;;;4.47;1.00;;;;;;;14.72;100.00;99290.28;5508961;32;34430;-57
2023/10/31 15:07:09;;;;;;;3.53;1.40;;;;;;;14.74;99.20;99306.94;5508495;32;33634;-57
2023/10/31 15:10:12;;;;;;;1.95;1.60;;;;;;;14.80;99.81;99329.06;5508809;32;34316;-57
2023/10/31 15:13:14;;;;;;;1.83;1.52;;;;;;;14.84;100.00;99351.59;5508722;32;34346;-57
2023/10/31 15:16:16;;;;;;;3.80;1.40;;;;;;;14.83;100.00;99365.41;5508422;32;34462;-57
2023/10/31 15:19:19;;;;;;;1.48;1.23;;;;;;;14.78;100.00;99388.78;5508582;32;34398;-57
2023/10/31 15:22:21;;;;;;;1.37;1.27;;;;;;;14.85;100.00;99404.44;5508778;32;33715;-57
2023/10/31 15:25:26;;;;;;;1.55;1.35;;;;;;;14.83;100.00;99398.56;5508637;32;33620;-57
2023/10/31 15:28:29;;;;;;;2.25;1.40;;;;;;;14.80;100.00;99412.72;5508429;32;33761;-57
2023/10/31 15:31:31;;;;;;;2.03;1.30;;;;;;;14.80;100.00;99426.19;5509313;31;33730;-57
2023/10/31 15:34:33;;;;;;;2.28;1.45;;;;;;;14.65;100.00;99438.41;5508487;32;33701;-57
2023/10/31 15:37:36;;;;;;;2.65;1.33;;;;;;;14.56;100.00;99453.84;5509040;31;33661;-57
2023/10/31 15:40:38;;;;;;;3.10;1.60;;;;;;;14.63;100.00;99451.41;5526374;32;33779;-57
2023/10/31 15:43:41;;;;;;;1.80;1.48;;;;;;;14.44;100.00;99453.78;5527634;32;33636;-57
2023/10/31 15:46:43;;;;;;;2.30;1.52;;;;;;;14.37;100.00;99454.31;5516411;32;33718;-57
2023/10/31 15:49:45;;;;;;;1.65;1.52;;;;;;;14.50;97.59;99457.84;5515924;32;32496;-57
2023/10/31 15:52:48;;;;;;;2.22;1.40;;;;;;;14.44;100.00;99464.56;5514731;32;33611;-57
2023/10/31 15:55:50;;;;;;;1.58;1.33;;;;;;;14.27;99.07;99465.44;5517429;32;33571;-57
2023/10/31 15:58:53;;;;;;;4.18;1.42;;;;;;;14.27;99.07;99471.66;5514980;32;33260;-57
2023/10/31 16:01:56;;;;;;;1.95;1.50;;;;;;;14.40;98.73;99467.09;5511104;32;33611;-57
